Time;durP1;ratioP1;P1;durP2;ratioP2;P2;SDS_P1;SDS_P2;PMS_P1;PMS_P2;Temp;Humidity;BMP_temperature;BMP_pressure;BME280_temperature;BME280_humidity;BME280_pressure;Samples;Min_cycle;Max_cycle;Signal;HPM_P1;HPM_P2
2021/04/21 00:00:22;;;;;;;;;;;22.30;45.70;;;;;;5054669;28;19931;-62
2021/04/21 00:02:53;;;;;;;;;;;22.30;45.90;;;;;;5060232;28;21360;-63
2021/04/21 00:05:20;;;;;;;;;;;22.30;45.90;;;;;;5059383;28;21563;-63
2021/04/21 00:07:47;;;;;;;;;;;22.20;45.80;;;;;;5059210;28;19925;-63
2021/04/21 00:10:13;;;;;;;;;;;22.20;45.80;;;;;;5065739;28;19928;-63
2021/04/21 00:12:40;;;;;;;;;;;22.20;45.90;;;;;;5058963;28;20052;-63
2021/04/21 00:15:11;;;;;;;;;;;22.20;46.00;;;;;;5058598;28;19939;-63
2021/04/21 00:17:39;;;;;;;;;;;22.20;46.60;;;;;;5052025;28;20301;-63
2021/04/21 00:20:07;;;;;;;;;;;22.10;46.10;;;;;;5060807;28;19982;-61
2021/04/21 00:22:35;;;;;;;;;;;22.10;46.00;;;;;;5057087;28;19931;-62
2021/04/21 00:25:01;;;;;;;;;;;22.10;46.10;;;;;;5062914;28;19931;-61
2021/04/21 00:27:29;;;;;;;;;;;22.10;46.20;;;;;;5059803;28;19925;-62
2021/04/21 00:30:04;;;;;;;;;;;22.00;46.10;;;;;;5064608;28;20449;-62
2021/04/21 00:32:33;;;;;;;;;;;22.00;46.20;;;;;;5053761;28;19924;-62
2021/04/21 00:35:00;;;;;;;;;;;22.00;46.20;;;;;;5064484;28;19928;-62
2021/04/21 00:37:28;;;;;;;;;;;21.90;46.20;;;;;;5048513;28;19979;-61
2021/04/21 00:39:56;;;;;;;;;;;21.90;46.20;;;;;;5062467;28;20431;-61
2021/04/21 00:42:32;;;;;;;;;;;21.90;46.20;;;;;;5056297;28;19939;-61
2021/04/21 00:45:24;;;;;;;;;;;21.90;46.30;;;;;;5065517;28;19932;-61
2021/04/21 00:48:03;;;;;;;;;;;21.90;46.30;;;;;;5061163;28;20553;-62
2021/04/21 00:50:48;;;;;;;;;;;21.80;46.30;;;;;;5039626;28;20420;-62
2021/04/21 00:53:17;;;;;;;;;;;21.80;46.40;;;;;;5063360;28;19939;-62
2021/04/21 00:55:47;;;;;;;;;;;21.80;46.40;;;;;;5065580;28;19925;-61
2021/04/21 00:58:19;;;;;;;;;;;21.80;46.50;;;;;;5046347;28;20003;-62
2021/04/21 01:00:46;;;;;;;;;;;21.70;46.40;;;;;;5047969;28;19991;-63
2021/04/21 01:03:14;;;;;;;;;;;21.70;46.40;;;;;;5064691;28;19933;-62
2021/04/21 01:05:42;;;;;;;;;;;21.70;46.50;;;;;;5066073;28;19925;-61
2021/04/21 01:08:10;;;;;;;;;;;21.70;46.50;;;;;;5063890;28;20434;-61
2021/04/21 01:10:45;;;;;;;;;;;21.70;46.60;;;;;;5051189;28;19974;-62
2021/04/21 01:13:12;;;;;;;;;;;21.60;46.50;;;;;;5061938;28;19998;-62
2021/04/21 01:15:39;;;;;;;;;;;21.70;46.60;;;;;;5066226;28;19924;-62
2021/04/21 01:18:07;;;;;;;;;;;21.60;46.50;;;;;;5060593;28;19928;-62
2021/04/21 01:20:53;;;;;;;;;;;21.60;46.60;;;;;;5054679;28;19924;-62
2021/04/21 01:23:30;;;;;;;;;;;21.60;46.60;;;;;;5049038;28;20902;-62
2021/04/21 01:26:02;;;;;;;;;;;21.60;46.60;;;;;;5067704;28;19947;-61
2021/04/21 01:28:29;;;;;;;;;;;21.50;46.60;;;;;;5060441;28;19932;-62
2021/04/21 01:30:55;;;;;;;;;;;21.50;46.60;;;;;;5064161;28;19932;-62
2021/04/21 01:33:23;;;;;;;;;;;21.50;46.60;;;;;;5070568;28;19925;-63
2021/04/21 01:35:55;;;;;;;;;;;21.50;46.70;;;;;;5067899;28;21942;-63
2021/04/21 01:38:23;;;;;;;;;;;21.50;46.60;;;;;;5051503;28;20112;-63
2021/04/21 01:40:50;;;;;;;;;;;21.50;46.70;;;;;;5067262;28;20848;-63
2021/04/21 01:43:23;;;;;;;;;;;21.40;46.70;;;;;;5057340;28;19925;-63
2021/04/21 01:45:55;;;;;;;;;;;21.40;46.70;;;;;;5064474;28;20343;-62
2021/04/21 01:48:22;;;;;;;;;;;21.40;46.70;;;;;;5063262;28;20574;-63
2021/04/21 01:50:50;;;;;;;;;;;21.40;46.80;;;;;;5063186;28;20701;-63
2021/04/21 01:53:29;;;;;;;;;;;21.40;46.80;;;;;;5065184;28;19994;-61
2021/04/21 01:55:59;;;;;;;;;;;21.30;46.80;;;;;;5059551;28;20365;-62
2021/04/21 01:58:33;;;;;;;;;;;21.40;46.90;;;;;;5060037;28;19928;-61
2021/04/21 02:01:01;;;;;;;;;;;21.40;46.90;;;;;;5065483;28;19931;-62
2021/04/21 02:03:36;;;;;;;;;;;21.30;46.90;;;;;;5061826;28;20431;-62
2021/04/21 02:06:25;;;;;;;;;;;21.40;47.00;;;;;;5055089;28;19925;-62
2021/04/21 02:09:10;;;;;;;;;;;21.30;47.00;;;;;;5067097;28;20212;-62
2021/04/21 02:11:38;;;;;;;;;;;21.30;47.00;;;;;;5035157;28;20786;-62
2021/04/21 02:14:23;;;;;;;;;;;21.30;47.00;;;;;;5064502;28;19937;-62
2021/04/21 02:16:53;;;;;;;;;;;21.30;47.10;;;;;;5052143;28;20796;-62
2021/04/21 02:19:38;;;;;;;;;;;21.30;47.00;;;;;;5059426;28;20441;-63
2021/04/21 02:22:25;;;;;;;;;;;21.20;47.00;;;;;;5051501;28;19924;-63
2021/04/21 02:25:01;;;;;;;;;;;21.20;47.10;;;;;;5061268;28;20800;-63
2021/04/21 02:27:42;;;;;;;;;;;21.20;47.10;;;;;;5067110;28;20369;-61
2021/04/21 02:30:27;;;;;;;;;;;21.20;47.20;;;;;;5051560;28;20332;-61
2021/04/21 02:32:53;;;;;;;;;;;21.20;47.20;;;;;;5063627;28;21855;-60
2021/04/21 02:35:26;;;;;;;;;;;21.10;47.20;;;;;;5061463;28;19975;-61
2021/04/21 02:38:14;;;;;;;;;;;21.10;47.20;;;;;;5044054;28;19935;-60
2021/04/21 02:40:53;;;;;;;;;;;21.10;47.30;;;;;;5061801;28;19944;-62
2021/04/21 02:43:38;;;;;;;;;;;21.10;47.30;;;;;;5057040;28;21914;-62
2021/04/21 02:46:11;;;;;;;;;;;21.10;47.30;;;;;;5049736;28;21173;-62
2021/04/21 02:48:47;;;;;;;;;;;21.10;47.30;;;;;;5054498;28;19964;-62
2021/04/21 02:51:14;;;;;;;;;;;21.10;47.30;;;;;;5066360;28;19924;-61
2021/04/21 02:53:44;;;;;;;;;;;21.10;47.30;;;;;;5051607;28;19931;-62
2021/04/21 02:56:16;;;;;;;;;;;21.10;47.40;;;;;;5051208;28;20809;-61
2021/04/21 02:58:52;;;;;;;;;;;21.10;47.40;;;;;;5057170;28;19933;-62
2021/04/21 03:01:26;;;;;;;;;;;21.00;47.40;;;;;;5064994;28;20717;-62
2021/04/21 03:04:10;;;;;;;;;;;21.00;47.30;;;;;;5053643;28;21386;-62
2021/04/21 03:06:42;;;;;;;;;;;21.00;47.40;;;;;;5036737;28;19924;-63
2021/04/21 03:09:10;;;;;;;;;;;21.00;47.40;;;;;;5067490;28;20012;-61
2021/04/21 03:11:36;;;;;;;;;;;21.00;47.40;;;;;;5057453;28;20316;-62
2021/04/21 03:14:07;;;;;;;;;;;21.00;47.40;;;;;;5059268;28;19931;-63
2021/04/21 03:16:38;;;;;;;;;;;21.00;47.40;;;;;;5068810;28;19932;-62
2021/04/21 03:19:06;;;;;;;;;;;21.00;47.40;;;;;;5065891;28;20450;-62
2021/04/21 03:21:35;;;;;;;;;;;20.90;47.30;;;;;;5056918;28;20414;-60
2021/04/21 03:24:10;;;;;;;;;;;20.90;47.30;;;;;;5064758;28;20355;-61
2021/04/21 03:26:39;;;;;;;;;;;21.00;47.40;;;;;;5051783;28;19970;-62
2021/04/21 03:29:07;;;;;;;;;;;20.90;47.30;;;;;;5067082;28;19924;-61
2021/04/21 03:31:34;;;;;;;;;;;20.90;47.50;;;;;;5068325;28;19936;-61
2021/04/21 03:34:02;;;;;;;;;;;20.90;47.60;;;;;;5065952;28;19978;-61
2021/04/21 03:36:29;;;;;;;;;;;20.90;47.70;;;;;;5055577;28;20622;-61
2021/04/21 03:38:56;;;;;;;;;;;20.90;47.70;;;;;;5063474;28;19924;-61
2021/04/21 03:41:22;;;;;;;;;;;20.90;47.80;;;;;;5054374;28;19932;-63
2021/04/21 03:43:49;;;;;;;;;;;20.90;47.80;;;;;;5060724;28;20812;-62
2021/04/21 03:46:16;;;;;;;;;;;20.90;47.90;;;;;;5054436;28;19924;-63
2021/04/21 03:48:43;;;;;;;;;;;20.90;47.90;;;;;;5059851;28;19937;-63
2021/04/21 03:51:13;;;;;;;;;;;20.80;47.90;;;;;;5059697;28;19931;-63
2021/04/21 03:53:40;;;;;;;;;;;20.80;47.90;;;;;;5066922;28;20527;-63
2021/04/21 03:56:08;;;;;;;;;;;20.80;47.90;;;;;;5057785;28;20616;-63
2021/04/21 03:58:35;;;;;;;;;;;20.80;47.90;;;;;;5056878;28;20485;-63
2021/04/21 04:01:06;;;;;;;;;;;20.80;48.00;;;;;;5059569;28;20316;-62
2021/04/21 04:03:33;;;;;;;;;;;20.80;48.00;;;;;;5057866;28;19985;-63
2021/04/21 04:06:07;;;;;;;;;;;20.80;48.00;;;;;;5066229;28;19924;-61
2021/04/21 04:08:35;;;;;;;;;;;20.80;48.00;;;;;;5052176;28;19925;-62
2021/04/21 04:11:03;;;;;;;;;;;20.80;48.00;;;;;;5061827;28;19947;-63
2021/04/21 04:13:31;;;;;;;;;;;20.80;48.10;;;;;;5049693;28;19933;-57
2021/04/21 04:15:58;;;;;;;;;;;20.80;48.10;;;;;;5065326;28;19931;-56
2021/04/21 04:18:25;;;;;;;;;;;20.80;48.70;;;;;;5053081;28;19928;-57
2021/04/21 04:20:58;;;;;;;;;;;20.80;48.00;;;;;;5067956;28;19928;-61
2021/04/21 04:23:29;;;;;;;;;;;20.80;48.00;;;;;;5052439;28;21281;-57
2021/04/21 04:26:04;;;;;;;;;;;20.70;48.00;;;;;;5059460;28;19909;-58
2021/04/21 04:28:31;;;;;;;;;;;20.70;48.00;;;;;;5050909;28;19925;-54
2021/04/21 04:31:02;;;;;;;;;;;20.70;47.90;;;;;;5064777;28;19913;-56
2021/04/21 04:33:30;;;;;;;;;;;20.70;48.00;;;;;;5054388;28;20693;-61
2021/04/21 04:36:06;;;;;;;;;;;20.70;48.00;;;;;;5063106;28;19925;-55
2021/04/21 04:38:32;;;;;;;;;;;20.70;48.00;;;;;;5057098;28;19935;-61
2021/04/21 04:40:58;;;;;;;;;;;20.70;48.00;;;;;;5055706;28;20278;-61
2021/04/21 04:43:25;;;;;;;;;;;20.70;48.00;;;;;;5063796;28;19935;-61
2021/04/21 04:45:59;;;;;;;;;;;20.60;48.00;;;;;;5054249;28;19931;-62
2021/04/21 04:48:29;;;;;;;;;;;20.70;48.10;;;;;;5059825;28;19935;-61
2021/04/21 04:51:00;;;;;;;;;;;20.60;48.00;;;;;;5049742;28;19925;-61
2021/04/21 04:53:27;;;;;;;;;;;20.60;48.10;;;;;;5062427;28;19928;-62
2021/04/21 04:55:53;;;;;;;;;;;20.60;48.20;;;;;;5065494;28;20580;-60
2021/04/21 04:58:20;;;;;;;;;;;20.60;48.20;;;;;;5050491;28;19932;-60
2021/04/21 05:00:48;;;;;;;;;;;20.60;48.20;;;;;;5058582;28;20284;-60
2021/04/21 05:03:17;;;;;;;;;;;20.60;48.20;;;;;;5062641;28;20276;-60
2021/04/21 05:05:44;;;;;;;;;;;20.60;48.30;;;;;;5060658;28;20499;-60
2021/04/21 05:08:16;;;;;;;;;;;20.60;48.30;;;;;;5060253;28;19932;-60
2021/04/21 05:10:52;;;;;;;;;;;20.60;48.40;;;;;;5052064;28;19939;-60
2021/04/21 05:13:20;;;;;;;;;;;20.60;48.40;;;;;;5057119;28;21558;-60
2021/04/21 05:15:50;;;;;;;;;;;20.60;48.40;;;;;;5055920;28;19925;-60
2021/04/21 05:18:22;;;;;;;;;;;20.60;48.30;;;;;;5064691;28;20337;-60
2021/04/21 05:21:03;;;;;;;;;;;20.60;48.40;;;;;;5064970;28;21912;-60
2021/04/21 05:23:50;;;;;;;;;;;20.50;48.30;;;;;;5047585;28;19924;-60
2021/04/21 05:26:22;;;;;;;;;;;20.60;48.30;;;;;;5063681;28;19982;-60
2021/04/21 05:28:58;;;;;;;;;;;20.60;48.40;;;;;;5047960;28;20316;-61
2021/04/21 05:31:43;;;;;;;;;;;20.60;48.40;;;;;;5061355;28;19928;-61
2021/04/21 05:34:35;;;;;;;;;;;20.50;48.30;;;;;;5059298;28;19988;-61
2021/04/21 05:37:20;;;;;;;;;;;20.60;48.40;;;;;;5034768;28;20431;-61
2021/04/21 05:40:02;;;;;;;;;;;20.50;48.30;;;;;;5062482;28;19928;-61
2021/04/21 05:42:35;;;;;;;;;;;20.50;48.30;;;;;;5049412;28;20999;-63
2021/04/21 05:45:14;;;;;;;;;;;20.60;48.30;;;;;;5062845;28;19924;-61
2021/04/21 05:48:04;;;;;;;;;;;20.50;48.60;;;;;;5056748;28;19924;-60
2021/04/21 05:50:43;;;;;;;;;;;20.50;48.60;;;;;;5047195;28;23384;-60
2021/04/21 05:53:32;;;;;;;;;;;20.60;48.80;;;;;;5061856;28;19924;-62
2021/04/21 05:55:58;;;;;;;;;;;20.60;48.50;;;;;;5015724;28;21906;-60
2021/04/21 05:58:24;;;;;;;;;;;20.50;48.50;;;;;;5065466;28;19925;-60
2021/04/21 06:01:09;;;;;;;;;;;20.60;48.50;;;;;;5053367;28;20000;-61
2021/04/21 06:03:40;;;;;;;;;;;20.50;48.40;;;;;;5043670;28;20381;-61
2021/04/21 06:06:06;;;;;;;;;;;20.60;48.40;;;;;;5056015;28;19928;-61
2021/04/21 06:08:32;;;;;;;;;;;20.60;48.30;;;;;;5059608;28;20327;-61
2021/04/21 06:10:59;;;;;;;;;;;20.50;48.40;;;;;;5054055;28;20271;-61
2021/04/21 06:13:27;;;;;;;;;;;20.50;48.30;;;;;;5063934;28;20393;-61
2021/04/21 06:15:53;;;;;;;;;;;20.50;48.30;;;;;;5067541;28;19936;-60
2021/04/21 06:18:20;;;;;;;;;;;20.50;48.30;;;;;;5063693;28;20451;-60
2021/04/21 06:20:46;;;;;;;;;;;20.50;48.30;;;;;;5066200;28;19986;-60
2021/04/21 06:23:14;;;;;;;;;;;20.50;48.20;;;;;;5065652;28;19932;-60
2021/04/21 06:25:44;;;;;;;;;;;20.50;48.20;;;;;;5063253;28;20558;-60
2021/04/21 06:28:17;;;;;;;;;;;20.50;48.20;;;;;;5064101;28;20339;-60
2021/04/21 06:30:45;;;;;;;;;;;20.50;48.30;;;;;;5060916;28;19983;-60
2021/04/21 06:33:11;;;;;;;;;;;20.50;48.30;;;;;;5062833;28;19947;-60
2021/04/21 06:35:39;;;;;;;;;;;20.50;48.40;;;;;;5062279;28;20598;-64
2021/04/21 06:38:06;;;;;;;;;;;20.60;48.80;;;;;;5058643;28;20471;-66
2021/04/21 06:40:33;;;;;;;;;;;20.60;49.60;;;;;;5060945;28;19933;-70
2021/04/21 06:42:59;;;;;;;;;;;20.80;49.90;;;;;;5065241;28;19933;-68
2021/04/21 06:45:30;;;;;;;;;;;20.90;49.90;;;;;;5056532;28;19929;-65
2021/04/21 06:47:56;;;;;;;;;;;20.90;50.00;;;;;;5062817;28;19931;-64
2021/04/21 06:50:27;;;;;;;;;;;21.00;50.30;;;;;;5067536;28;19995;-61
2021/04/21 06:52:57;;;;;;;;;;;21.10;50.10;;;;;;5064762;28;22055;-62
2021/04/21 06:55:23;;;;;;;;;;;21.20;50.40;;;;;;5059245;28;20576;-63
2021/04/21 06:57:49;;;;;;;;;;;21.20;50.40;;;;;;5063331;28;19932;-63
2021/04/21 07:00:16;;;;;;;;;;;21.30;50.30;;;;;;5067260;28;19925;-59
2021/04/21 07:02:46;;;;;;;;;;;21.30;50.30;;;;;;5062200;28;19932;-65
2021/04/21 07:05:26;;;;;;;;;;;21.40;50.20;;;;;;5061692;28;19973;-62
2021/04/21 07:08:12;;;;;;;;;;;21.50;50.20;;;;;;5042422;28;21479;-65
2021/04/21 07:10:46;;;;;;;;;;;21.50;50.10;;;;;;5046957;28;20528;-62
2021/04/21 07:13:16;;;;;;;;;;;21.60;50.40;;;;;;5065329;28;19928;-64
2021/04/21 07:15:43;;;;;;;;;;;21.70;50.00;;;;;;5062638;28;19933;-64
2021/04/21 07:18:11;;;;;;;;;;;21.70;50.20;;;;;;5065540;28;19958;-64
2021/04/21 07:20:38;;;;;;;;;;;21.80;50.00;;;;;;5066561;28;19924;-62
2021/04/21 07:23:06;;;;;;;;;;;21.90;49.80;;;;;;5058277;28;19955;-63
2021/04/21 07:25:32;;;;;;;;;;;21.90;49.70;;;;;;5057264;28;19924;-61
2021/04/21 07:27:58;;;;;;;;;;;22.00;49.50;;;;;;5057257;28;19924;-65
2021/04/21 07:30:26;;;;;;;;;;;22.10;49.60;;;;;;5056614;28;19928;-64
2021/04/21 07:32:52;;;;;;;;;;;22.10;49.60;;;;;;5065923;28;19925;-65
2021/04/21 07:35:20;;;;;;;;;;;22.10;49.30;;;;;;5066466;28;19936;-61
2021/04/21 07:37:47;;;;;;;;;;;22.10;49.30;;;;;;5057687;28;20409;-64
2021/04/21 07:40:20;;;;;;;;;;;22.20;49.60;;;;;;5054840;28;20267;-63
2021/04/21 07:42:47;;;;;;;;;;;22.30;49.20;;;;;;5062667;28;19928;-63
2021/04/21 07:45:14;;;;;;;;;;;22.30;49.30;;;;;;5065862;28;19932;-63
2021/04/21 07:47:40;;;;;;;;;;;22.30;49.20;;;;;;5058776;28;19925;-65
2021/04/21 07:50:09;;;;;;;;;;;22.40;49.60;;;;;;5058785;28;20312;-67
2021/04/21 07:52:39;;;;;;;;;;;22.40;48.90;;;;;;5056478;28;19996;-61
2021/04/21 07:55:05;;;;;;;;;;;22.50;48.60;;;;;;5055080;28;19925;-61
2021/04/21 07:57:31;;;;;;;;;;;22.50;48.50;;;;;;5065320;28;19928;-64
2021/04/21 07:59:57;;;;;;;;;;;22.50;48.30;;;;;;5065565;28;19924;-66
2021/04/21 08:02:24;;;;;;;;;;;22.60;48.20;;;;;;5059350;28;19936;-65
2021/04/21 08:04:52;;;;;;;;;;;22.60;48.20;;;;;;5056575;28;19935;-65
2021/04/21 08:07:25;;;;;;;;;;;22.60;48.20;;;;;;5061282;28;19933;-63
2021/04/21 08:09:51;;;;;;;;;;;22.70;48.20;;;;;;5054047;28;20803;-61
2021/04/21 08:12:17;;;;;;;;;;;22.70;48.20;;;;;;5063688;28;20270;-59
2021/04/21 08:14:44;;;;;;;;;;;22.50;45.10;;;;;;5063735;28;19925;-59
2021/04/21 08:17:11;;;;;;;;;;;22.40;45.00;;;;;;5066350;28;19981;-59
2021/04/21 08:19:39;;;;;;;;;;;22.30;45.20;;;;;;5063972;28;19924;-59
2021/04/21 08:22:06;;;;;;;;;;;22.20;45.20;;;;;;5058458;28;19925;-59
2021/04/21 08:24:43;;;;;;;;;;;22.20;45.30;;;;;;5060801;28;19936;-65
2021/04/21 08:27:11;;;;;;;;;;;22.20;46.80;;;;;;5061625;28;19935;-68
2021/04/21 08:29:38;;;;;;;;;;;22.30;47.20;;;;;;5059883;28;19924;-64
2021/04/21 08:32:05;;;;;;;;;;;22.40;47.00;;;;;;5058133;28;21274;-63
2021/04/21 08:34:32;;;;;;;;;;;22.40;47.10;;;;;;5062628;28;19992;-63
2021/04/21 08:36:58;;;;;;;;;;;22.50;47.60;;;;;;5061032;28;19928;-63
2021/04/21 08:39:25;;;;;;;;;;;22.60;47.40;;;;;;5065189;28;19928;-64
2021/04/21 08:41:55;;;;;;;;;;;22.60;48.20;;;;;;5060598;28;19931;-63
2021/04/21 08:44:22;;;;;;;;;;;22.70;48.30;;;;;;5064080;28;21916;-63
2021/04/21 08:46:48;;;;;;;;;;;22.70;48.30;;;;;;5058633;28;19928;-64
2021/04/21 08:49:15;;;;;;;;;;;22.80;48.00;;;;;;5063352;28;19928;-65
2021/04/21 08:51:42;;;;;;;;;;;22.80;47.80;;;;;;5065523;28;20572;-61
2021/04/21 08:54:12;;;;;;;;;;;22.80;47.90;;;;;;5063314;28;19935;-65
2021/04/21 08:56:40;;;;;;;;;;;22.80;47.50;;;;;;5061555;28;19928;-64
2021/04/21 08:59:15;;;;;;;;;;;22.90;47.40;;;;;;5058737;28;20475;-60
2021/04/21 09:01:44;;;;;;;;;;;22.80;45.50;;;;;;5059465;28;19931;-60
2021/04/21 09:04:12;;;;;;;;;;;22.60;45.10;;;;;;5057571;28;20357;-62
2021/04/21 09:06:38;;;;;;;;;;;22.70;46.40;;;;;;5049878;28;20297;-62
2021/04/21 09:09:05;;;;;;;;;;;22.80;47.10;;;;;;5061148;28;20284;-62
2021/04/21 09:11:33;;;;;;;;;;;22.90;48.00;;;;;;5062736;28;19928;-63
2021/04/21 09:13:59;;;;;;;;;;;22.90;47.50;;;;;;5060856;28;19936;-62
2021/04/21 09:16:25;;;;;;;;;;;23.00;48.00;;;;;;5062725;28;19935;-64
2021/04/21 09:18:51;;;;;;;;;;;23.00;47.60;;;;;;5061217;28;19928;-64
2021/04/21 09:21:19;;;;;;;;;;;23.10;47.50;;;;;;5060122;28;19924;-63
2021/04/21 09:23:47;;;;;;;;;;;23.10;48.00;;;;;;5059799;28;19933;-62
2021/04/21 09:26:17;;;;;;;;;;;23.20;47.60;;;;;;5060666;28;19928;-62
2021/04/21 09:28:45;;;;;;;;;;;23.30;47.90;;;;;;5058376;28;20439;-61
2021/04/21 09:31:14;;;;;;;;;;;23.30;47.70;;;;;;5058446;28;19939;-62
2021/04/21 09:33:40;;;;;;;;;;;23.30;46.90;;;;;;5065216;28;19932;-64
2021/04/21 09:36:07;;;;;;;;;;;23.40;47.60;;;;;;5062528;28;20019;-62
2021/04/21 09:38:33;;;;;;;;;;;23.40;47.50;;;;;;5063584;28;19932;-63
2021/04/21 09:41:02;;;;;;;;;;;23.40;47.30;;;;;;5063323;28;19943;-62
2021/04/21 09:43:30;;;;;;;;;;;23.50;47.10;;;;;;5045726;28;19925;-61
2021/04/21 09:45:57;;;;;;;;;;;23.60;47.20;;;;;;5064362;28;19939;-64
2021/04/21 09:48:31;;;;;;;;;;;23.60;47.20;;;;;;5065705;28;19928;-62
2021/04/21 09:50:58;;;;;;;;;;;23.60;47.80;;;;;;5066422;28;20789;-63
2021/04/21 09:53:26;;;;;;;;;;;23.60;47.60;;;;;;5050757;28;20501;-64
2021/04/21 09:55:58;;;;;;;;;;;23.60;47.00;;;;;;5066683;28;19932;-64
2021/04/21 09:58:36;;;;;;;;;;;23.70;47.30;;;;;;5055094;28;20806;-66
2021/04/21 10:01:16;;;;;;;;;;;23.70;47.30;;;;;;5061318;28;20001;-64
2021/04/21 10:03:43;;;;;;;;;;;23.70;47.30;;;;;;5053927;28;19931;-64
2021/04/21 10:06:18;;;;;;;;;;;23.80;46.90;;;;;;5061349;28;19924;-65
2021/04/21 10:08:44;;;;;;;;;;;23.80;46.80;;;;;;5054171;28;19933;-63
2021/04/21 10:11:11;;;;;;;;;;;23.80;46.70;;;;;;5062474;28;19936;-58
2021/04/21 10:13:42;;;;;;;;;;;23.60;43.60;;;;;;5052831;28;19925;-59
2021/04/21 10:16:09;;;;;;;;;;;23.40;43.60;;;;;;5064763;28;19939;-59
2021/04/21 10:18:36;;;;;;;;;;;23.30;45.30;;;;;;5068580;28;19956;-59
2021/04/21 10:21:02;;;;;;;;;;;23.20;46.20;;;;;;5060998;28;19932;-59
2021/04/21 10:23:29;;;;;;;;;;;23.10;46.70;;;;;;5068856;28;19925;-58
2021/04/21 10:25:59;;;;;;;;;;;23.00;47.00;;;;;;5062607;28;19932;-59
2021/04/21 10:28:26;;;;;;;;;;;23.00;47.10;;;;;;5055135;28;20034;-59
2021/04/21 10:30:53;;;;;;;;;;;22.90;47.10;;;;;;5062280;28;20577;-58
2021/04/21 10:33:19;;;;;;;;;;;22.80;46.80;;;;;;5066867;28;20431;-58
2021/04/21 10:35:45;;;;;;;;;;;22.80;46.90;;;;;;5062015;28;19932;-58
2021/04/21 10:38:13;;;;;;;;;;;22.70;47.10;;;;;;5063787;28;19932;-58
2021/04/21 10:40:39;;;;;;;;;;;22.70;47.70;;;;;;5058579;28;19947;-59
2021/04/21 10:43:06;;;;;;;;;;;22.70;48.00;;;;;;5057097;28;19925;-58
2021/04/21 10:45:44;;;;;;;;;;;22.70;48.30;;;;;;5063703;28;19931;-58
2021/04/21 10:48:10;;;;;;;;;;;22.60;48.10;;;;;;5055031;28;19928;-58
2021/04/21 10:50:42;;;;;;;;;;;22.60;47.70;;;;;;5059138;28;19935;-58
2021/04/21 10:53:43;;;;;;;;;;;22.60;48.00;;;;;;5055177;28;19924;-58
2021/04/21 10:56:20;;;;;;;;;;;22.60;48.70;;;;;;5039945;28;19933;-58
2021/04/21 10:58:49;;;;;;;;;;;22.50;49.00;;;;;;5060410;28;19924;-58
2021/04/21 11:01:35;;;;;;;;;;;22.50;49.00;;;;;;5056700;28;19925;-60
2021/04/21 11:04:02;;;;;;;;;;;22.50;49.30;;;;;;5048477;28;19925;-59
2021/04/21 11:06:41;;;;;;;;;;;22.50;49.30;;;;;;5066917;28;19928;-59
2021/04/21 11:09:07;;;;;;;;;;;22.50;49.00;;;;;;5066781;28;20389;-59
2021/04/21 11:11:34;;;;;;;;;;;22.40;49.00;;;;;;5065504;28;20373;-61
2021/04/21 11:14:01;;;;;;;;;;;22.40;48.90;;;;;;5065967;28;19932;-59
2021/04/21 11:16:35;;;;;;;;;;;22.40;48.90;;;;;;5060541;28;19924;-59
2021/04/21 11:19:19;;;;;;;;;;;22.40;48.80;;;;;;5062817;28;19943;-59
2021/04/21 11:21:47;;;;;;;;;;;22.40;48.60;;;;;;5051099;28;19988;-59
2021/04/21 11:24:14;;;;;;;;;;;22.40;48.70;;;;;;5063086;28;19939;-59
2021/04/21 11:26:44;;;;;;;;;;;22.40;49.60;;;;;;5063367;28;20323;-59
2021/04/21 11:29:19;;;;;;;;;;;22.40;49.50;;;;;;5065637;28;19939;-59
2021/04/21 11:34:24;;;;;;;;;;;22.30;49.70;;;;;;5063902;28;20037;-59
2021/04/21 11:36:56;;;;;;;;;;;22.30;49.90;;;;;;5067309;28;21412;-59
2021/04/21 11:39:47;;;;;;;;;;;22.30;49.80;;;;;;5063649;28;19932;-59
2021/04/21 11:42:23;;;;;;;;;;;22.30;49.40;;;;;;5036660;28;20523;-59
2021/04/21 11:44:49;;;;;;;;;;;22.30;48.90;;;;;;5061672;28;19925;-59
2021/04/21 11:47:33;;;;;;;;;;;22.30;48.80;;;;;;5033717;28;19932;-59
2021/04/21 11:50:00;;;;;;;;;;;22.30;49.00;;;;;;5048619;28;19933;-59
2021/04/21 11:52:45;;;;;;;;;;;22.30;48.80;;;;;;5050403;28;19924;-59
2021/04/21 11:55:18;;;;;;;;;;;22.30;49.10;;;;;;5059292;28;19951;-58
2021/04/21 11:57:52;;;;;;;;;;;22.30;49.00;;;;;;5061679;28;19932;-59
2021/04/21 12:00:20;;;;;;;;;;;22.30;49.50;;;;;;5059278;28;19931;-58
2021/04/21 12:02:46;;;;;;;;;;;22.30;49.30;;;;;;5048737;28;19925;-58
2021/04/21 12:05:13;;;;;;;;;;;22.30;48.90;;;;;;5059591;28;19932;-58
2021/04/21 12:07:44;;;;;;;;;;;22.30;48.80;;;;;;5065563;28;19973;-62
2021/04/21 12:10:11;;;;;;;;;;;22.50;50.90;;;;;;5061797;28;19932;-59
2021/04/21 12:12:37;;;;;;;;;;;22.70;50.90;;;;;;5064123;28;19932;-60
2021/04/21 12:15:07;;;;;;;;;;;22.80;50.80;;;;;;5062696;28;19929;-61
2021/04/21 12:17:34;;;;;;;;;;;23.00;49.60;;;;;;5068380;28;19936;-62
2021/04/21 12:20:00;;;;;;;;;;;23.10;49.70;;;;;;5063717;28;20010;-61
2021/04/21 12:22:40;;;;;;;;;;;23.10;50.20;;;;;;5062343;28;19924;-64
2021/04/21 12:25:07;;;;;;;;;;;23.20;50.00;;;;;;5062857;28;19925;-62
2021/04/21 12:27:34;;;;;;;;;;;23.30;50.00;;;;;;5057545;28;19931;-59
2021/04/21 12:30:13;;;;;;;;;;;23.30;49.50;;;;;;5056961;28;19928;-63
2021/04/21 12:32:39;;;;;;;;;;;23.40;49.50;;;;;;5060442;28;19986;-63
2021/04/21 12:35:07;;;;;;;;;;;23.40;49.80;;;;;;5060798;28;19925;-59
2021/04/21 12:37:33;;;;;;;;;;;23.50;49.60;;;;;;5064408;28;19924;-59
2021/04/21 12:39:59;;;;;;;;;;;23.60;50.00;;;;;;5061077;28;20355;-62
2021/04/21 12:42:25;;;;;;;;;;;23.60;49.50;;;;;;5063345;28;19932;-61
2021/04/21 12:44:52;;;;;;;;;;;23.70;48.80;;;;;;5066679;28;19931;-61
2021/04/21 12:47:18;;;;;;;;;;;23.70;48.90;;;;;;5066574;28;19932;-63
2021/04/21 12:49:46;;;;;;;;;;;23.80;48.90;;;;;;5062578;28;20897;-63
2021/04/21 12:52:13;;;;;;;;;;;23.80;49.70;;;;;;5064165;28;20558;-60
2021/04/21 12:54:43;;;;;;;;;;;23.90;48.80;;;;;;5044549;28;19928;-58
2021/04/21 12:57:10;;;;;;;;;;;23.50;47.70;;;;;;5065589;28;20438;-61
2021/04/21 12:59:46;;;;;;;;;;;23.50;48.80;;;;;;5059798;28;19946;-61
2021/04/21 13:02:51;;;;;;;;;;;23.70;49.80;;;;;;5055340;28;20091;-60
2021/04/21 13:05:21;;;;;;;;;;;23.80;48.50;;;;;;4984723;28;20592;-66
2021/04/21 13:07:47;;;;;;;;;;;23.80;48.20;;;;;;5058432;28;19924;-63
2021/04/21 13:10:14;;;;;;;;;;;23.80;50.80;;;;;;5065668;28;19932;-65
2021/04/21 13:12:41;;;;;;;;;;;23.90;49.50;;;;;;5062219;28;19959;-63
2021/04/21 13:15:08;;;;;;;;;;;24.00;49.70;;;;;;5063791;28;19935;-63
2021/04/21 13:17:50;;;;;;;;;;;24.10;49.70;;;;;;5065761;28;19925;-67
2021/04/21 13:20:17;;;;;;;;;;;24.10;49.40;;;;;;5070578;28;19974;-65
2021/04/21 13:22:44;;;;;;;;;;;24.20;49.10;;;;;;5070216;28;20691;-66
2021/04/21 13:25:12;;;;;;;;;;;24.20;49.80;;;;;;5071054;28;19924;-66
2021/04/21 13:27:39;;;;;;;;;;;24.30;49.30;;;;;;5069310;28;20419;-65
2021/04/21 13:30:08;;;;;;;;;;;24.20;49.60;;;;;;5071919;28;19924;-67
2021/04/21 13:32:46;;;;;;;;;;;24.30;49.50;;;;;;5072529;28;19924;-57
2021/04/21 13:35:14;;;;;;;;;;;24.30;49.00;;;;;;5068046;28;19947;-66
2021/04/21 13:37:45;;;;;;;;;;;24.40;49.70;;;;;;5066887;28;20493;-63
2021/04/21 13:40:12;;;;;;;;;;;24.40;49.20;;;;;;5072456;28;19935;-63
2021/04/21 13:42:40;;;;;;;;;;;24.40;49.20;;;;;;5069451;28;19982;-61
2021/04/21 13:45:07;;;;;;;;;;;24.50;49.30;;;;;;5071372;28;19924;-60
2021/04/21 13:47:33;;;;;;;;;;;24.40;47.70;;;;;;5054451;28;19925;-60
2021/04/21 13:49:59;;;;;;;;;;;24.00;46.60;;;;;;5068999;28;19925;-59
2021/04/21 13:52:25;;;;;;;;;;;23.80;46.60;;;;;;5069053;28;19938;-60
2021/04/21 13:54:51;;;;;;;;;;;23.80;46.90;;;;;;5070328;28;19998;-60
2021/04/21 13:57:18;;;;;;;;;;;23.70;47.80;;;;;;5068476;28;19924;-61
2021/04/21 13:59:44;;;;;;;;;;;23.60;47.50;;;;;;5067817;28;19925;-60
2021/04/21 14:02:13;;;;;;;;;;;23.60;47.20;;;;;;5070123;28;19976;-62
2021/04/21 14:04:40;;;;;;;;;;;23.80;49.40;;;;;;5068832;28;19932;-62
2021/04/21 14:07:06;;;;;;;;;;;24.00;49.00;;;;;;5069836;28;20301;-64
2021/04/21 14:09:32;;;;;;;;;;;24.20;49.40;;;;;;5068960;28;19924;-65
2021/04/21 14:11:59;;;;;;;;;;;24.30;50.20;;;;;;5071430;28;20412;-64
2021/04/21 14:14:25;;;;;;;;;;;24.40;48.70;;;;;;5070349;28;19928;-64
2021/04/21 14:16:51;;;;;;;;;;;24.60;49.50;;;;;;5071278;28;19967;-62
2021/04/21 14:19:18;;;;;;;;;;;24.60;49.40;;;;;;5068894;28;19932;-63
2021/04/21 14:21:44;;;;;;;;;;;24.70;49.50;;;;;;5070789;28;19935;-63
2021/04/21 14:24:10;;;;;;;;;;;24.80;49.00;;;;;;5067389;28;19934;-64
2021/04/21 14:26:37;;;;;;;;;;;24.80;49.60;;;;;;5072503;28;19931;-64
2021/04/21 14:29:03;;;;;;;;;;;24.90;49.70;;;;;;5072156;28;19993;-64
2021/04/21 14:31:30;;;;;;;;;;;24.90;49.90;;;;;;5066949;28;19924;-60
2021/04/21 14:33:56;;;;;;;;;;;24.90;49.50;;;;;;5068622;28;19924;-63
2021/04/21 14:36:24;;;;;;;;;;;25.00;49.40;;;;;;5071396;28;19985;-61